createdAt,value
2018-07-24T00:00:28.522Z,20.90
2018-07-24T00:03:02.575Z,20.90
2018-07-24T00:05:33.934Z,20.90
2018-07-24T00:08:08.231Z,20.80
2018-07-24T00:10:40.345Z,20.70
2018-07-24T00:13:09.014Z,20.70
2018-07-24T00:15:37.903Z,20.70
2018-07-24T00:18:10.003Z,20.70
2018-07-24T00:20:55.898Z,20.70
2018-07-24T00:26:19.887Z,20.60
2018-07-24T00:28:51.742Z,20.60
2018-07-24T00:31:25.011Z,20.50
2018-07-24T00:36:39.488Z,20.50
2018-07-24T00:39:13.417Z,20.50
2018-07-24T00:41:42.741Z,20.40
2018-07-24T00:44:20.831Z,20.40
2018-07-24T00:46:58.632Z,20.40
2018-07-24T00:49:27.870Z,20.40
2018-07-24T00:52:10.560Z,20.40
2018-07-24T00:54:40.055Z,20.30
2018-07-24T00:57:09.869Z,20.30
2018-07-24T00:59:48.070Z,20.30
2018-07-24T01:02:29.102Z,20.30
2018-07-24T01:05:00.977Z,20.30
2018-07-24T01:07:33.894Z,20.40
2018-07-24T01:10:03.612Z,20.30
2018-07-24T01:12:47.391Z,20.40
2018-07-24T01:15:27.974Z,20.40
2018-07-24T01:18:13.059Z,20.40
2018-07-24T01:20:59.858Z,20.30
2018-07-24T01:23:31.163Z,20.30
2018-07-24T01:26:17.873Z,20.30
2018-07-24T01:28:49.647Z,20.30
2018-07-24T01:31:23.913Z,20.30
2018-07-24T01:33:58.602Z,20.30
2018-07-24T01:36:27.757Z,20.30
2018-07-24T01:38:56.407Z,20.30
2018-07-24T01:44:23.262Z,20.30
2018-07-24T01:46:51.778Z,20.30
2018-07-24T01:49:23.339Z,20.30
2018-07-24T01:51:52.126Z,20.30
2018-07-24T01:54:23.873Z,20.30
2018-07-24T01:56:58.370Z,20.20
2018-07-24T01:59:27.503Z,20.20
2018-07-24T02:01:56.095Z,20.20
2018-07-24T02:04:25.899Z,20.20
2018-07-24T02:07:00.000Z,20.10
2018-07-24T02:09:33.710Z,20.10
2018-07-24T02:12:16.683Z,20.10
2018-07-24T02:14:45.628Z,20.10
2018-07-24T02:17:19.898Z,20.00
2018-07-24T02:19:54.557Z,20.00
2018-07-24T02:22:26.802Z,20.00
2018-07-24T02:25:03.214Z,19.90
2018-07-24T02:27:32.400Z,19.90
2018-07-24T02:30:02.109Z,19.80
2018-07-24T02:32:34.081Z,19.80
2018-07-24T02:35:08.173Z,19.80
2018-07-24T02:41:53.491Z,19.70
2018-07-24T02:44:22.804Z,19.70
2018-07-24T02:46:51.497Z,19.60
2018-07-24T02:49:20.280Z,19.60
2018-07-24T02:51:54.403Z,19.60
2018-07-24T02:54:23.554Z,19.60
2018-07-24T02:56:55.192Z,19.50
2018-07-24T02:59:33.611Z,19.50
2018-07-24T03:03:28.201Z,19.50
2018-07-24T03:06:03.005Z,19.40
2018-07-24T03:08:32.251Z,19.40
2018-07-24T03:13:29.697Z,19.30
2018-07-24T03:16:07.800Z,19.30
2018-07-24T03:21:15.560Z,19.30
2018-07-24T03:23:44.885Z,19.30
2018-07-24T03:26:14.303Z,19.20
2018-07-24T03:28:55.160Z,19.20
2018-07-24T03:31:24.673Z,19.20
2018-07-24T03:33:54.263Z,19.20
2018-07-24T03:36:23.003Z,19.20
2018-07-24T03:38:51.633Z,19.10
2018-07-24T03:41:20.433Z,19.10
2018-07-24T03:43:50.134Z,19.10
2018-07-24T03:46:18.982Z,19.00
2018-07-24T03:48:55.155Z,19.00
2018-07-24T03:51:24.197Z,19.00
2018-07-24T03:53:53.904Z,19.00
2018-07-24T03:56:32.190Z,19.00
2018-07-24T03:59:04.347Z,18.90
2018-07-24T04:01:38.643Z,18.90
2018-07-24T04:04:07.847Z,18.90
2018-07-24T04:06:46.106Z,18.90
2018-07-24T04:09:22.859Z,18.90
2018-07-24T04:12:10.292Z,18.90
2018-07-24T04:14:44.452Z,18.90
2018-07-24T04:17:13.726Z,18.90
2018-07-24T04:19:51.958Z,18.90
2018-07-24T04:22:24.348Z,18.90
2018-07-24T04:24:56.101Z,18.90
2018-07-24T04:27:27.560Z,18.90
2018-07-24T04:30:02.682Z,18.90
2018-07-24T04:32:47.845Z,18.90
2018-07-24T04:35:21.823Z,18.90
2018-07-24T04:37:51.059Z,19.00
2018-07-24T04:40:25.534Z,19.10
2018-07-24T04:42:57.616Z,19.10
2018-07-24T04:45:40.176Z,19.10
2018-07-24T04:48:14.470Z,19.20
2018-07-24T04:50:43.547Z,19.30
2018-07-24T04:53:17.798Z,19.40
2018-07-24T04:55:46.984Z,19.40
2018-07-24T04:58:15.732Z,19.40
2018-07-24T05:00:56.680Z,19.40
2018-07-24T05:03:26.023Z,19.40
2018-07-24T05:06:00.331Z,19.50
2018-07-24T05:11:25.683Z,19.60
2018-07-24T05:16:45.390Z,19.80
2018-07-24T05:19:16.996Z,19.90
2018-07-24T05:21:45.848Z,20.00
2018-07-24T05:24:17.553Z,20.00
2018-07-24T05:26:49.232Z,20.10
2018-07-24T05:29:27.456Z,20.10
2018-07-24T05:32:01.986Z,20.10
2018-07-24T05:34:31.379Z,20.20
2018-07-24T05:37:00.801Z,20.30
2018-07-24T05:39:29.790Z,20.30
2018-07-24T05:41:58.323Z,20.30
2018-07-24T05:44:27.441Z,20.30
2018-07-24T05:46:55.932Z,20.40
2018-07-24T05:49:27.841Z,20.40
2018-07-24T05:51:56.574Z,20.60
2018-07-24T05:54:25.325Z,20.60
2018-07-24T05:56:57.124Z,20.70
2018-07-24T05:59:25.932Z,20.80
2018-07-24T06:01:54.721Z,20.90
2018-07-24T06:04:24.542Z,21.00
2018-07-24T06:06:53.272Z,21.20
2018-07-24T06:09:22.908Z,21.20
2018-07-24T06:11:54.635Z,21.30
2018-07-24T06:14:24.246Z,21.40
2018-07-24T06:16:52.936Z,21.50
2018-07-24T06:19:21.520Z,21.60
2018-07-24T06:21:51.476Z,21.70
2018-07-24T06:24:20.021Z,21.80
2018-07-24T06:26:48.989Z,21.90
2018-07-24T06:29:17.773Z,22.10
2018-07-24T06:31:49.325Z,22.30
2018-07-24T06:34:18.029Z,22.40
2018-07-24T06:36:46.640Z,22.60
2018-07-24T06:39:15.334Z,22.70
2018-07-24T06:41:45.164Z,22.90
2018-07-24T06:44:13.781Z,23.00
2018-07-24T06:46:42.313Z,23.10
2018-07-24T06:49:13.997Z,23.20
2018-07-24T06:51:43.074Z,23.30
2018-07-24T06:54:17.043Z,23.40
2018-07-24T06:56:52.922Z,23.50
2018-07-24T06:59:21.985Z,23.60
2018-07-24T07:01:50.782Z,23.80
2018-07-24T07:04:25.140Z,23.90
2018-07-24T07:06:54.400Z,24.00
2018-07-24T07:09:22.726Z,24.10
2018-07-24T07:11:54.539Z,24.20
2018-07-24T07:14:26.275Z,24.20
2018-07-24T07:16:56.048Z,24.20
2018-07-24T07:19:24.645Z,24.50
2018-07-24T07:21:58.920Z,24.70
2018-07-24T07:24:28.166Z,24.90
2018-07-24T07:26:57.985Z,24.90
2018-07-24T07:32:02.874Z,25.20
2018-07-24T07:34:31.908Z,25.30
2018-07-24T07:37:06.391Z,25.50
2018-07-24T07:39:45.259Z,25.40
2018-07-24T07:42:14.252Z,25.50
2018-07-24T07:44:45.826Z,25.60
2018-07-24T07:47:20.346Z,25.80
2018-07-24T07:49:50.241Z,26.20
2018-07-24T07:52:24.622Z,26.40
2018-07-24T07:54:53.832Z,26.50
2018-07-24T07:57:22.491Z,26.50
2018-07-24T07:59:54.262Z,26.80
2018-07-24T08:02:22.882Z,26.70
2018-07-24T08:04:51.505Z,27.10
2018-07-24T08:07:21.256Z,27.20
2018-07-24T08:09:49.902Z,27.40
2018-07-24T08:12:18.514Z,27.60
2018-07-24T08:14:50.137Z,27.70
2018-07-24T08:17:18.720Z,27.90
2018-07-24T08:19:52.936Z,28.00
2018-07-24T08:22:22.050Z,28.30
2018-07-24T08:24:56.244Z,28.20
2018-07-24T08:27:26.522Z,28.10
2018-07-24T08:29:56.044Z,28.40
2018-07-24T08:32:24.878Z,28.70
2018-07-24T08:34:56.409Z,28.70
2018-07-24T08:37:25.709Z,28.90
2018-07-24T08:39:57.162Z,29.30
2018-07-24T08:42:25.563Z,29.20
2018-07-24T08:44:55.225Z,29.20
2018-07-24T08:47:28.252Z,29.30
2018-07-24T08:50:02.056Z,29.40
2018-07-24T08:52:31.472Z,29.30
2018-07-24T08:55:01.110Z,29.60
2018-07-24T08:57:29.626Z,29.70
2018-07-24T08:59:58.233Z,30.00
2018-07-24T09:02:27.921Z,29.90
2018-07-24T09:04:56.561Z,30.00
2018-07-24T09:07:25.316Z,29.70
2018-07-24T09:09:53.969Z,30.10
2018-07-24T09:12:22.776Z,30.30
2018-07-24T09:14:51.396Z,30.50
2018-07-24T09:17:23.113Z,30.90
2018-07-24T09:19:52.018Z,30.60
2018-07-24T09:22:20.471Z,30.70
2018-07-24T09:24:49.005Z,31.00
2018-07-24T09:27:17.868Z,31.10
2018-07-24T09:29:52.092Z,30.90
2018-07-24T09:32:21.366Z,31.20
2018-07-24T09:34:49.881Z,30.80
2018-07-24T09:37:18.770Z,31.40
2018-07-24T09:39:47.628Z,31.10
2018-07-24T09:44:44.813Z,31.80
2018-07-24T09:47:13.732Z,31.70
2018-07-24T09:49:42.815Z,31.90
2018-07-24T09:52:11.512Z,32.40
2018-07-24T09:54:40.068Z,32.40
2018-07-24T09:57:14.325Z,32.70
2018-07-24T09:59:43.299Z,32.80
2018-07-24T10:02:12.049Z,32.70
2018-07-24T10:04:40.870Z,33.10
2018-07-24T10:07:09.702Z,33.00
2018-07-24T10:09:41.218Z,33.00
2018-07-24T10:14:39.430Z,33.10
2018-07-24T10:17:09.212Z,33.50
2018-07-24T10:19:39.113Z,33.20
2018-07-24T10:22:08.136Z,33.30
2018-07-24T10:24:36.724Z,33.50
2018-07-24T10:27:05.491Z,33.90
2018-07-24T10:29:35.211Z,34.20
2018-07-24T10:32:03.858Z,34.40
2018-07-24T10:34:32.473Z,34.20
2018-07-24T10:37:01.208Z,34.40
2018-07-24T10:39:31.173Z,34.30
2018-07-24T10:41:59.757Z,33.60
2018-07-24T10:44:29.395Z,33.50
2018-07-24T10:46:58.222Z,33.60
2018-07-24T10:49:27.127Z,33.50
2018-07-24T10:51:55.778Z,34.10
2018-07-24T10:54:24.614Z,33.90
2018-07-24T10:56:53.332Z,33.80
2018-07-24T10:59:25.103Z,33.80
2018-07-24T11:01:53.683Z,33.90
2018-07-24T11:04:22.317Z,34.00
2018-07-24T11:06:54.147Z,34.10
2018-07-24T11:09:30.035Z,33.40
2018-07-24T11:11:59.152Z,33.70
2018-07-24T11:14:27.829Z,34.00
2018-07-24T11:16:57.021Z,33.30
2018-07-24T11:19:26.405Z,33.00
2018-07-24T11:21:58.105Z,33.00
2018-07-24T11:26:55.572Z,32.20
2018-07-24T11:29:24.818Z,32.50
2018-07-24T11:31:54.124Z,32.80
2018-07-24T11:34:22.687Z,33.20
2018-07-24T11:36:51.491Z,33.10
2018-07-24T11:39:23.666Z,33.50
2018-07-24T11:41:58.451Z,33.50
2018-07-24T11:44:27.655Z,33.70
2018-07-24T11:47:01.756Z,33.20
2018-07-24T11:49:30.896Z,32.60
2018-07-24T11:51:59.693Z,32.50
2018-07-24T11:54:29.204Z,33.20
2018-07-24T11:56:57.910Z,33.50
2018-07-24T11:59:26.672Z,33.90
2018-07-24T12:01:55.712Z,34.20
2018-07-24T12:04:24.487Z,34.00
2018-07-24T12:06:53.400Z,34.20
2018-07-24T12:09:22.760Z,34.60
2018-07-24T12:11:52.582Z,34.70
2018-07-24T12:14:21.453Z,34.70
2018-07-24T12:16:49.861Z,34.20
2018-07-24T12:19:18.856Z,34.50
2018-07-24T12:21:47.548Z,34.60
2018-07-24T12:24:16.243Z,34.90
2018-07-24T12:26:45.864Z,34.40
2018-07-24T12:29:14.602Z,34.70
2018-07-24T12:31:43.266Z,34.80
2018-07-24T12:34:11.881Z,35.20
2018-07-24T12:36:43.657Z,34.90
2018-07-24T12:39:12.615Z,35.10
2018-07-24T12:41:41.272Z,35.30
2018-07-24T12:44:10.013Z,35.40
2018-07-24T12:46:40.861Z,35.50
2018-07-24T12:49:10.343Z,35.30
2018-07-24T12:51:39.578Z,35.70
2018-07-24T12:54:08.855Z,34.80
2018-07-24T12:59:06.265Z,35.20
2018-07-24T13:01:35.203Z,35.80
2018-07-24T13:04:03.948Z,35.40
2018-07-24T13:06:32.480Z,35.80
2018-07-24T13:09:01.405Z,35.90
2018-07-24T13:11:30.091Z,35.60
2018-07-24T13:13:59.488Z,35.70
2018-07-24T13:16:28.777Z,35.50
2018-07-24T13:18:57.454Z,35.50
2018-07-24T13:21:26.087Z,35.90
2018-07-24T13:23:54.822Z,36.10
2018-07-24T13:26:23.647Z,35.90
2018-07-24T13:28:52.587Z,35.50
2018-07-24T13:31:21.200Z,35.90
2018-07-24T13:33:50.009Z,35.90
2018-07-24T13:36:22.903Z,36.00
2018-07-24T13:38:52.401Z,36.40
2018-07-24T13:41:21.206Z,35.60
2018-07-24T13:43:49.814Z,35.90
2018-07-24T13:46:18.474Z,35.50
2018-07-24T13:48:47.286Z,35.20
2018-07-24T13:51:16.052Z,35.40
2018-07-24T13:53:44.846Z,35.40
2018-07-24T13:56:16.544Z,35.60
2018-07-24T13:58:46.178Z,35.50
2018-07-24T14:01:14.895Z,35.60
2018-07-24T14:03:43.560Z,35.40
2018-07-24T14:06:12.337Z,35.70
2018-07-24T14:08:41.048Z,35.60
2018-07-24T14:11:19.168Z,35.80
2018-07-24T14:13:49.465Z,35.50
2018-07-24T14:16:21.677Z,35.40
2018-07-24T14:18:57.331Z,35.30
2018-07-24T14:21:26.563Z,35.40
2018-07-24T14:23:56.354Z,34.90
2018-07-24T14:26:25.193Z,34.70
2018-07-24T14:28:53.878Z,34.90
2018-07-24T14:31:22.622Z,34.80
2018-07-24T14:33:58.812Z,35.30
2018-07-24T14:36:27.960Z,34.50
2018-07-24T14:38:56.923Z,34.40
2018-07-24T14:41:28.425Z,34.80
2018-07-24T14:44:00.105Z,34.80
2018-07-24T14:46:32.145Z,34.00
2018-07-24T14:49:03.664Z,34.30
2018-07-24T14:51:32.219Z,33.70
2018-07-24T14:54:01.910Z,33.70
2018-07-24T14:56:30.585Z,33.60
2018-07-24T14:59:00.390Z,33.10
2018-07-24T15:01:34.448Z,33.30
2018-07-24T15:04:03.540Z,33.80
2018-07-24T15:06:35.340Z,33.70
2018-07-24T15:09:07.717Z,33.60
2018-07-24T15:11:37.900Z,33.70
2018-07-24T15:14:06.485Z,33.10
2018-07-24T15:16:38.130Z,33.20
2018-07-24T15:19:09.863Z,33.30
2018-07-24T15:21:38.638Z,33.10
2018-07-24T15:24:07.320Z,32.70
2018-07-24T15:26:36.305Z,32.70
2018-07-24T15:29:10.644Z,33.20
2018-07-24T15:31:40.189Z,33.20
2018-07-24T15:34:09.499Z,33.30
2018-07-24T15:36:43.448Z,33.30
2018-07-24T15:39:13.696Z,33.50
2018-07-24T15:41:48.344Z,33.60
2018-07-24T15:44:19.676Z,33.20
2018-07-24T15:46:53.808Z,32.90
2018-07-24T15:49:33.849Z,33.20
2018-07-24T15:52:05.635Z,33.10
2018-07-24T15:54:34.237Z,32.90
2018-07-24T15:57:02.802Z,33.10
2018-07-24T15:59:37.036Z,33.30
2018-07-24T16:02:06.201Z,33.20
2018-07-24T16:04:34.774Z,33.10
2018-07-24T16:07:03.661Z,33.50
2018-07-24T16:09:32.121Z,33.50
2018-07-24T16:12:07.070Z,33.60
2018-07-24T16:14:36.868Z,33.50
2018-07-24T16:17:07.001Z,33.70
2018-07-24T16:19:36.446Z,33.80
2018-07-24T16:22:08.234Z,33.00
2018-07-24T16:24:42.338Z,33.20
2018-07-24T16:27:11.545Z,33.30
2018-07-24T16:29:43.362Z,33.30
2018-07-24T16:32:15.016Z,32.90
2018-07-24T16:34:43.624Z,32.80
2018-07-24T16:37:15.260Z,32.50
2018-07-24T16:42:15.463Z,32.60
2018-07-24T16:44:46.860Z,32.50
2018-07-24T16:47:18.588Z,32.70
2018-07-24T16:49:47.199Z,32.70
2018-07-24T16:52:16.376Z,32.70
2018-07-24T16:54:46.436Z,32.70
2018-07-24T16:57:18.496Z,32.30
2018-07-24T17:02:16.624Z,32.20
2018-07-24T17:04:45.492Z,32.60
2018-07-24T17:07:14.340Z,32.30
2018-07-24T17:09:42.883Z,31.90
2018-07-24T17:12:11.932Z,31.90
2018-07-24T17:14:40.296Z,32.00
2018-07-24T17:17:10.213Z,31.50
2018-07-24T17:19:39.658Z,31.20
2018-07-24T17:24:36.251Z,31.30
2018-07-24T17:27:04.862Z,30.90
2018-07-24T17:29:33.849Z,30.60
2018-07-24T17:32:02.596Z,30.70
2018-07-24T17:34:34.395Z,30.60
2018-07-24T17:37:03.104Z,30.50
2018-07-24T17:39:31.792Z,30.30
2018-07-24T17:42:00.641Z,30.20
2018-07-24T17:44:30.589Z,29.70
2018-07-24T17:46:59.981Z,29.40
2018-07-24T17:49:28.830Z,29.20
2018-07-24T17:51:57.692Z,29.40
2018-07-24T17:54:26.310Z,29.20
2018-07-24T17:56:56.122Z,28.90
2018-07-24T17:59:24.757Z,28.80
2018-07-24T18:01:53.493Z,28.70
2018-07-24T18:04:23.187Z,28.50
2018-07-24T18:06:52.136Z,28.30
2018-07-24T18:09:21.028Z,28.30
2018-07-24T18:11:49.458Z,28.10
2018-07-24T18:14:18.166Z,28.30
2018-07-24T18:16:46.916Z,28.00
2018-07-24T18:19:17.092Z,27.80
2018-07-24T18:21:45.606Z,27.90
2018-07-24T18:24:14.274Z,27.80
2018-07-24T18:26:43.014Z,27.80
2018-07-24T18:29:11.761Z,27.80
2018-07-24T18:31:40.731Z,27.70
2018-07-24T18:34:09.570Z,27.60
2018-07-24T18:36:38.277Z,27.40
2018-07-24T18:39:08.018Z,27.40
2018-07-24T18:41:37.924Z,27.30
2018-07-24T18:44:06.464Z,27.30
2018-07-24T18:46:35.319Z,27.20
2018-07-24T18:51:33.660Z,26.70
2018-07-24T18:54:02.665Z,26.80
2018-07-24T18:56:31.258Z,26.70
2018-07-24T18:58:59.806Z,26.60
2018-07-24T19:01:29.339Z,26.60
2018-07-24T19:03:58.965Z,26.60
2018-07-24T19:06:27.724Z,26.70
2018-07-24T19:08:57.622Z,26.60
2018-07-24T19:11:26.433Z,26.50
2018-07-24T19:13:55.301Z,26.50
2018-07-24T19:16:23.810Z,26.40
2018-07-24T19:18:52.669Z,26.40
2018-07-24T19:21:21.283Z,26.30
2018-07-24T19:23:50.063Z,26.20
2018-07-24T19:26:18.646Z,26.10
2018-07-24T19:28:47.281Z,26.00
2018-07-24T19:31:16.070Z,25.70
2018-07-24T19:33:45.945Z,25.70
2018-07-24T19:36:14.600Z,25.60
2018-07-24T19:38:43.239Z,25.60
2018-07-24T19:41:12.012Z,25.50
2018-07-24T19:43:40.614Z,25.40
2018-07-24T19:46:09.645Z,25.40
2018-07-24T19:48:38.309Z,25.30
2018-07-24T19:51:07.223Z,25.30
2018-07-24T19:53:37.205Z,25.30
2018-07-24T19:56:05.838Z,25.20
2018-07-24T19:58:34.723Z,25.00
2018-07-24T20:01:04.563Z,25.00
2018-07-24T20:03:36.290Z,24.90
2018-07-24T20:06:04.880Z,24.80
2018-07-24T20:08:35.704Z,24.90
2018-07-24T20:11:04.371Z,24.80
2018-07-24T20:13:33.020Z,24.60
2018-07-24T20:16:06.119Z,24.60
2018-07-24T20:18:35.065Z,24.60
2018-07-24T20:21:03.474Z,24.40
2018-07-24T20:23:32.148Z,24.30
2018-07-24T20:26:03.706Z,24.20
2018-07-24T20:28:32.477Z,24.20
2018-07-24T20:31:01.189Z,24.00
2018-07-24T20:35:58.384Z,24.00
2018-07-24T20:38:27.069Z,23.90
2018-07-24T20:40:55.729Z,23.90
2018-07-24T20:43:24.535Z,23.90
2018-07-24T20:45:53.331Z,23.90
2018-07-24T20:48:21.914Z,23.80
2018-07-24T20:50:51.091Z,23.90
2018-07-24T20:53:19.657Z,23.90
2018-07-24T20:55:51.490Z,23.90
2018-07-24T20:58:20.054Z,23.80
2018-07-24T21:00:48.830Z,23.70
2018-07-24T21:03:17.568Z,23.70
2018-07-24T21:05:46.433Z,23.60
2018-07-24T21:08:15.223Z,23.60
2018-07-24T21:13:13.420Z,23.60
2018-07-24T21:15:43.152Z,23.60
2018-07-24T21:18:14.939Z,23.60
2018-07-24T21:20:43.507Z,23.60
2018-07-24T21:23:16.461Z,23.60
2018-07-24T21:25:44.849Z,23.50
2018-07-24T21:28:19.124Z,23.50
2018-07-24T21:30:50.728Z,23.50
2018-07-24T21:33:20.410Z,23.50
2018-07-24T21:35:51.784Z,23.40
2018-07-24T21:38:21.953Z,23.30
2018-07-24T21:40:53.340Z,23.30
2018-07-24T21:43:22.244Z,23.30
2018-07-24T21:45:50.701Z,23.20
2018-07-24T21:48:20.346Z,23.20
2018-07-24T21:50:50.345Z,23.20
2018-07-24T21:53:18.718Z,23.20
2018-07-24T21:55:48.550Z,23.20
2018-07-24T21:58:17.205Z,23.20
2018-07-24T22:00:45.826Z,23.10
2018-07-24T22:03:15.087Z,23.10
2018-07-24T22:05:43.876Z,23.10
2018-07-24T22:08:12.458Z,23.10
2018-07-24T22:10:44.314Z,23.10
2018-07-24T22:13:14.052Z,23.10
2018-07-24T22:15:45.822Z,23.00
2018-07-24T22:18:14.537Z,23.00
2018-07-24T22:20:43.056Z,23.00
2018-07-24T22:23:11.950Z,23.00
2018-07-24T22:25:40.811Z,23.10
2018-07-24T22:28:10.345Z,23.00
2018-07-24T22:30:44.950Z,23.10
2018-07-24T22:33:14.967Z,23.10
2018-07-24T22:35:43.556Z,23.00
2018-07-24T22:38:12.308Z,23.10
2018-07-24T22:40:41.980Z,23.00
2018-07-24T22:45:39.192Z,23.00
2018-07-24T22:50:41.399Z,23.00
2018-07-24T22:53:13.462Z,22.90
2018-07-24T22:55:42.281Z,22.90
2018-07-24T22:58:10.954Z,22.90
2018-07-24T23:00:39.639Z,22.90
2018-07-24T23:03:08.288Z,22.90
2018-07-24T23:05:44.468Z,22.90
2018-07-24T23:08:13.615Z,22.90
2018-07-24T23:13:10.890Z,22.80
2018-07-24T23:17:04.100Z,22.70
2018-07-24T23:19:33.013Z,22.80
2018-07-24T23:24:34.800Z,22.70
2018-07-24T23:27:03.169Z,22.70
2018-07-24T23:29:34.880Z,22.70
2018-07-24T23:32:03.464Z,22.70
2018-07-24T23:34:32.020Z,22.60
2018-07-24T23:37:01.940Z,22.60
2018-07-24T23:39:33.493Z,22.60
2018-07-24T23:42:02.280Z,22.60
2018-07-24T23:44:30.850Z,22.60
2018-07-24T23:47:04.997Z,22.60
2018-07-24T23:49:36.393Z,22.60
2018-07-24T23:52:05.186Z,22.50
2018-07-24T23:54:37.088Z,22.50
2018-07-24T23:57:06.784Z,22.50
